sensor_id;sensor_type;location;lat;lon;timestamp;P1;durP1;ratioP1;P2;durP2;ratioP2
28862;SDS011;15994;51.796;13.006;2023-06-22T00:00:58;10.50;;;7.90;;
28862;SDS011;15994;51.796;13.006;2023-06-22T00:03:25;8.25;;;7.18;;
28862;SDS011;15994;51.796;13.006;2023-06-22T00:05:52;8.35;;;7.55;;
28862;SDS011;15994;51.796;13.006;2023-06-22T00:08:19;8.00;;;7.00;;
28862;SDS011;15994;51.796;13.006;2023-06-22T00:10:46;10.32;;;6.97;;
28862;SDS011;15994;51.796;13.006;2023-06-22T00:13:13;8.45;;;7.45;;
28862;SDS011;15994;51.796;13.006;2023-06-22T00:15:41;8.75;;;7.18;;
28862;SDS011;15994;51.796;13.006;2023-06-22T00:18:08;8.13;;;7.32;;
28862;SDS011;15994;51.796;13.006;2023-06-22T00:20:35;9.27;;;7.53;;
28862;SDS011;15994;51.796;13.006;2023-06-22T00:23:03;9.13;;;7.68;;
28862;SDS011;15994;51.796;13.006;2023-06-22T00:25:33;11.85;;;7.85;;
28862;SDS011;15994;51.796;13.006;2023-06-22T00:28:03;9.00;;;7.93;;
28862;SDS011;15994;51.796;13.006;2023-06-22T00:30:31;9.27;;;8.27;;
28862;SDS011;15994;51.796;13.006;2023-06-22T00:32:58;8.60;;;7.80;;
28862;SDS011;15994;51.796;13.006;2023-06-22T00:35:25;8.27;;;7.47;;
28862;SDS011;15994;51.796;13.006;2023-06-22T00:37:57;8.55;;;7.57;;
28862;SDS011;15994;51.796;13.006;2023-06-22T00:40:26;8.48;;;7.32;;
28862;SDS011;15994;51.796;13.006;2023-06-22T00:42:53;10.00;;;7.32;;
28862;SDS011;15994;51.796;13.006;2023-06-22T00:45:20;8.32;;;7.53;;
28862;SDS011;15994;51.796;13.006;2023-06-22T00:47:49;9.15;;;7.82;;
28862;SDS011;15994;51.796;13.006;2023-06-22T00:50:22;9.30;;;8.30;;
28862;SDS011;15994;51.796;13.006;2023-06-22T00:52:52;9.30;;;8.40;;
28862;SDS011;15994;51.796;13.006;2023-06-22T00:55:21;11.18;;;7.95;;
28862;SDS011;15994;51.796;13.006;2023-06-22T00:57:48;10.90;;;8.48;;
28862;SDS011;15994;51.796;13.006;2023-06-22T01:00:15;9.10;;;8.20;;
28862;SDS011;15994;51.796;13.006;2023-06-22T01:02:44;9.45;;;7.80;;
28862;SDS011;15994;51.796;13.006;2023-06-22T01:05:12;10.40;;;8.48;;
28862;SDS011;15994;51.796;13.006;2023-06-22T01:07:46;10.30;;;8.40;;
28862;SDS011;15994;51.796;13.006;2023-06-22T01:13:07;9.52;;;8.52;;
28862;SDS011;15994;51.796;13.006;2023-06-22T01:15:41;12.50;;;8.70;;
28862;SDS011;15994;51.796;13.006;2023-06-22T01:18:14;9.65;;;8.65;;
28862;SDS011;15994;51.796;13.006;2023-06-22T01:20:43;11.48;;;8.95;;
28862;SDS011;15994;51.796;13.006;2023-06-22T01:29:00;9.85;;;8.95;;
28862;SDS011;15994;51.796;13.006;2023-06-22T01:31:32;9.68;;;8.70;;
28862;SDS011;15994;51.796;13.006;2023-06-22T01:34:01;11.73;;;8.98;;
28862;SDS011;15994;51.796;13.006;2023-06-22T01:36:29;11.57;;;9.90;;
28862;SDS011;15994;51.796;13.006;2023-06-22T01:38:57;10.55;;;9.07;;
28862;SDS011;15994;51.796;13.006;2023-06-22T01:41:26;11.05;;;9.40;;
28862;SDS011;15994;51.796;13.006;2023-06-22T01:43:55;10.95;;;9.80;;
28862;SDS011;15994;51.796;13.006;2023-06-22T01:46:22;27.60;;;9.98;;
28862;SDS011;15994;51.796;13.006;2023-06-22T01:48:49;12.13;;;10.43;;
28862;SDS011;15994;51.796;13.006;2023-06-22T01:51:17;11.93;;;9.93;;
28862;SDS011;15994;51.796;13.006;2023-06-22T01:53:44;11.73;;;10.55;;
28862;SDS011;15994;51.796;13.006;2023-06-22T01:56:10;11.70;;;10.45;;
28862;SDS011;15994;51.796;13.006;2023-06-22T01:58:40;12.25;;;11.00;;
28862;SDS011;15994;51.796;13.006;2023-06-22T02:01:23;11.77;;;10.57;;
28862;SDS011;15994;51.796;13.006;2023-06-22T02:04:00;12.05;;;10.75;;
28862;SDS011;15994;51.796;13.006;2023-06-22T02:06:31;12.98;;;11.30;;
28862;SDS011;15994;51.796;13.006;2023-06-22T02:09:04;11.98;;;10.75;;
28862;SDS011;15994;51.796;13.006;2023-06-22T02:11:35;12.55;;;11.18;;
28862;SDS011;15994;51.796;13.006;2023-06-22T02:14:03;12.23;;;10.93;;
28862;SDS011;15994;51.796;13.006;2023-06-22T02:16:31;13.05;;;11.65;;
28862;SDS011;15994;51.796;13.006;2023-06-22T02:18:58;13.18;;;11.88;;
28862;SDS011;15994;51.796;13.006;2023-06-22T02:21:28;13.40;;;11.48;;
28862;SDS011;15994;51.796;13.006;2023-06-22T02:23:55;13.00;;;11.65;;
28862;SDS011;15994;51.796;13.006;2023-06-22T02:26:21;13.48;;;11.48;;
28862;SDS011;15994;51.796;13.006;2023-06-22T02:28:49;12.63;;;11.43;;
28862;SDS011;15994;51.796;13.006;2023-06-22T02:31:16;13.00;;;11.75;;
28862;SDS011;15994;51.796;13.006;2023-06-22T02:33:43;12.80;;;11.50;;
28862;SDS011;15994;51.796;13.006;2023-06-22T02:36:10;12.88;;;11.45;;
28862;SDS011;15994;51.796;13.006;2023-06-22T02:38:38;13.52;;;12.10;;
28862;SDS011;15994;51.796;13.006;2023-06-22T02:41:13;13.45;;;12.05;;
28862;SDS011;15994;51.796;13.006;2023-06-22T02:43:44;13.38;;;12.07;;
28862;SDS011;15994;51.796;13.006;2023-06-22T02:46:11;13.35;;;12.05;;
28862;SDS011;15994;51.796;13.006;2023-06-22T02:48:39;14.63;;;13.18;;
28862;SDS011;15994;51.796;13.006;2023-06-22T02:51:06;14.13;;;12.68;;
28862;SDS011;15994;51.796;13.006;2023-06-22T02:53:33;13.73;;;11.90;;
28862;SDS011;15994;51.796;13.006;2023-06-22T02:56:03;13.40;;;12.15;;
28862;SDS011;15994;51.796;13.006;2023-06-22T02:58:31;14.70;;;12.88;;
28862;SDS011;15994;51.796;13.006;2023-06-22T03:01:04;15.15;;;13.65;;
28862;SDS011;15994;51.796;13.006;2023-06-22T03:03:31;15.43;;;13.82;;
28862;SDS011;15994;51.796;13.006;2023-06-22T03:05:57;15.02;;;13.63;;
28862;SDS011;15994;51.796;13.006;2023-06-22T03:08:25;14.13;;;12.82;;
28862;SDS011;15994;51.796;13.006;2023-06-22T03:10:52;15.60;;;13.82;;
28862;SDS011;15994;51.796;13.006;2023-06-22T03:13:18;15.30;;;13.73;;
28862;SDS011;15994;51.796;13.006;2023-06-22T03:15:45;15.98;;;14.48;;
28862;SDS011;15994;51.796;13.006;2023-06-22T03:18:11;14.70;;;13.15;;
28862;SDS011;15994;51.796;13.006;2023-06-22T03:20:38;15.23;;;13.73;;
28862;SDS011;15994;51.796;13.006;2023-06-22T03:23:04;16.70;;;14.30;;
28862;SDS011;15994;51.796;13.006;2023-06-22T03:25:31;14.82;;;13.32;;
28862;SDS011;15994;51.796;13.006;2023-06-22T03:27:58;15.75;;;14.15;;
28862;SDS011;15994;51.796;13.006;2023-06-22T03:30:26;15.07;;;13.57;;
28862;SDS011;15994;51.796;13.006;2023-06-22T03:32:52;15.80;;;14.20;;
28862;SDS011;15994;51.796;13.006;2023-06-22T03:35:19;17.02;;;15.25;;
28862;SDS011;15994;51.796;13.006;2023-06-22T03:37:45;16.60;;;15.00;;
28862;SDS011;15994;51.796;13.006;2023-06-22T03:40:12;16.23;;;14.57;;
28862;SDS011;15994;51.796;13.006;2023-06-22T03:42:39;16.45;;;14.75;;
28862;SDS011;15994;51.796;13.006;2023-06-22T03:45:05;16.02;;;14.52;;
28862;SDS011;15994;51.796;13.006;2023-06-22T03:47:32;17.10;;;14.88;;
28862;SDS011;15994;51.796;13.006;2023-06-22T03:49:59;16.73;;;14.90;;
28862;SDS011;15994;51.796;13.006;2023-06-22T03:52:28;15.90;;;14.30;;
28862;SDS011;15994;51.796;13.006;2023-06-22T03:54:55;16.27;;;14.68;;
28862;SDS011;15994;51.796;13.006;2023-06-22T03:57:22;17.83;;;14.85;;
28862;SDS011;15994;51.796;13.006;2023-06-22T03:59:48;15.82;;;14.23;;
28862;SDS011;15994;51.796;13.006;2023-06-22T04:02:15;17.52;;;15.30;;
28862;SDS011;15994;51.796;13.006;2023-06-22T04:04:42;16.38;;;14.68;;
28862;SDS011;15994;51.796;13.006;2023-06-22T04:07:08;17.27;;;15.50;;
28862;SDS011;15994;51.796;13.006;2023-06-22T04:09:35;16.38;;;14.70;;
28862;SDS011;15994;51.796;13.006;2023-06-22T04:12:01;16.13;;;14.52;;
28862;SDS011;15994;51.796;13.006;2023-06-22T04:14:28;18.73;;;14.70;;
28862;SDS011;15994;51.796;13.006;2023-06-22T04:16:55;16.38;;;14.63;;
28862;SDS011;15994;51.796;13.006;2023-06-22T04:19:21;15.55;;;14.05;;
28862;SDS011;15994;51.796;13.006;2023-06-22T04:21:48;19.45;;;15.13;;
28862;SDS011;15994;51.796;13.006;2023-06-22T04:24:14;16.65;;;15.05;;
28862;SDS011;15994;51.796;13.006;2023-06-22T04:26:41;16.08;;;14.38;;
28862;SDS011;15994;51.796;13.006;2023-06-22T04:29:10;16.35;;;14.63;;
28862;SDS011;15994;51.796;13.006;2023-06-22T04:31:37;16.90;;;14.50;;
28862;SDS011;15994;51.796;13.006;2023-06-22T04:34:05;16.13;;;14.52;;
28862;SDS011;15994;51.796;13.006;2023-06-22T04:36:35;16.50;;;14.55;;
28862;SDS011;15994;51.796;13.006;2023-06-22T04:39:07;16.58;;;14.90;;
28862;SDS011;15994;51.796;13.006;2023-06-22T04:41:37;15.70;;;14.10;;
28862;SDS011;15994;51.796;13.006;2023-06-22T04:44:11;15.57;;;13.95;;
28862;SDS011;15994;51.796;13.006;2023-06-22T04:46:38;16.02;;;14.43;;
28862;SDS011;15994;51.796;13.006;2023-06-22T04:49:08;14.73;;;13.25;;
28862;SDS011;15994;51.796;13.006;2023-06-22T04:51:39;16.10;;;14.18;;
28862;SDS011;15994;51.796;13.006;2023-06-22T04:54:07;15.48;;;13.70;;
28862;SDS011;15994;51.796;13.006;2023-06-22T04:56:35;14.88;;;12.77;;
28862;SDS011;15994;51.796;13.006;2023-06-22T04:59:02;15.10;;;13.65;;
28862;SDS011;15994;51.796;13.006;2023-06-22T05:01:29;16.27;;;13.77;;
28862;SDS011;15994;51.796;13.006;2023-06-22T05:03:56;15.13;;;13.57;;
28862;SDS011;15994;51.796;13.006;2023-06-22T05:06:26;17.45;;;14.30;;
28862;SDS011;15994;51.796;13.006;2023-06-22T05:08:53;14.70;;;13.30;;
28862;SDS011;15994;51.796;13.006;2023-06-22T05:11:26;16.40;;;14.70;;
28862;SDS011;15994;51.796;13.006;2023-06-22T05:13:53;15.65;;;14.05;;
28862;SDS011;15994;51.796;13.006;2023-06-22T05:16:20;15.88;;;14.23;;
28862;SDS011;15994;51.796;13.006;2023-06-22T05:18:58;14.77;;;13.38;;
28862;SDS011;15994;51.796;13.006;2023-06-22T05:21:25;15.32;;;13.73;;
28862;SDS011;15994;51.796;13.006;2023-06-22T05:23:53;15.23;;;13.82;;
28862;SDS011;15994;51.796;13.006;2023-06-22T05:26:21;17.73;;;14.27;;
28862;SDS011;15994;51.796;13.006;2023-06-22T05:28:47;15.25;;;13.50;;
28862;SDS011;15994;51.796;13.006;2023-06-22T05:31:14;14.13;;;12.75;;
28862;SDS011;15994;51.796;13.006;2023-06-22T05:33:43;15.38;;;13.98;;
28862;SDS011;15994;51.796;13.006;2023-06-22T05:36:10;15.45;;;13.45;;
28862;SDS011;15994;51.796;13.006;2023-06-22T05:38:37;14.88;;;13.40;;
28862;SDS011;15994;51.796;13.006;2023-06-22T05:41:04;16.40;;;14.40;;
28862;SDS011;15994;51.796;13.006;2023-06-22T05:43:31;16.38;;;14.68;;
28862;SDS011;15994;51.796;13.006;2023-06-22T05:45:58;19.75;;;14.77;;
28862;SDS011;15994;51.796;13.006;2023-06-22T05:48:25;16.70;;;15.10;;
28862;SDS011;15994;51.796;13.006;2023-06-22T05:50:52;15.18;;;13.40;;
28862;SDS011;15994;51.796;13.006;2023-06-22T05:53:19;14.98;;;13.57;;
28862;SDS011;15994;51.796;13.006;2023-06-22T05:55:46;15.48;;;13.88;;
28862;SDS011;15994;51.796;13.006;2023-06-22T05:58:12;15.20;;;13.60;;
28862;SDS011;15994;51.796;13.006;2023-06-22T06:00:39;14.75;;;13.35;;
28862;SDS011;15994;51.796;13.006;2023-06-22T06:03:06;15.10;;;13.70;;
28862;SDS011;15994;51.796;13.006;2023-06-22T06:05:33;15.05;;;13.65;;
28862;SDS011;15994;51.796;13.006;2023-06-22T06:08:01;14.30;;;13.00;;
28862;SDS011;15994;51.796;13.006;2023-06-22T06:10:29;14.90;;;13.50;;
28862;SDS011;15994;51.796;13.006;2023-06-22T06:12:57;14.02;;;11.57;;
28862;SDS011;15994;51.796;13.006;2023-06-22T06:15:23;13.93;;;12.52;;
28862;SDS011;15994;51.796;13.006;2023-06-22T06:17:51;12.98;;;11.57;;
28862;SDS011;15994;51.796;13.006;2023-06-22T06:20:19;12.90;;;11.63;;
28862;SDS011;15994;51.796;13.006;2023-06-22T06:22:47;16.02;;;12.35;;
28862;SDS011;15994;51.796;13.006;2023-06-22T06:25:15;12.20;;;11.02;;
28862;SDS011;15994;51.796;13.006;2023-06-22T06:27:42;13.90;;;11.80;;
28862;SDS011;15994;51.796;13.006;2023-06-22T06:30:10;14.50;;;11.95;;
28862;SDS011;15994;51.796;13.006;2023-06-22T06:32:37;11.60;;;10.43;;
28862;SDS011;15994;51.796;13.006;2023-06-22T06:35:06;12.40;;;11.15;;
28862;SDS011;15994;51.796;13.006;2023-06-22T06:37:36;12.18;;;10.98;;
28862;SDS011;15994;51.796;13.006;2023-06-22T06:40:05;12.77;;;10.65;;
28862;SDS011;15994;51.796;13.006;2023-06-22T06:42:33;12.00;;;10.73;;
28862;SDS011;15994;51.796;13.006;2023-06-22T06:45:00;11.57;;;10.50;;
28862;SDS011;15994;51.796;13.006;2023-06-22T06:47:26;12.00;;;10.82;;
28862;SDS011;15994;51.796;13.006;2023-06-22T06:49:53;11.75;;;10.55;;
28862;SDS011;15994;51.796;13.006;2023-06-22T06:52:20;12.82;;;10.10;;
28862;SDS011;15994;51.796;13.006;2023-06-22T06:54:46;13.60;;;10.52;;
28862;SDS011;15994;51.796;13.006;2023-06-22T06:57:13;11.90;;;10.80;;
28862;SDS011;15994;51.796;13.006;2023-06-22T06:59:40;11.10;;;10.00;;
28862;SDS011;15994;51.796;13.006;2023-06-22T07:02:07;10.50;;;9.50;;
28862;SDS011;15994;51.796;13.006;2023-06-22T07:04:33;10.55;;;9.02;;
28862;SDS011;15994;51.796;13.006;2023-06-22T07:07:01;11.07;;;9.68;;
28862;SDS011;15994;51.796;13.006;2023-06-22T07:09:28;11.55;;;10.10;;
28862;SDS011;15994;51.796;13.006;2023-06-22T07:11:54;10.10;;;9.02;;
28862;SDS011;15994;51.796;13.006;2023-06-22T07:14:21;11.02;;;10.02;;
28862;SDS011;15994;51.796;13.006;2023-06-22T07:16:47;10.13;;;9.23;;
28862;SDS011;15994;51.796;13.006;2023-06-22T07:19:14;11.60;;;10.50;;
28862;SDS011;15994;51.796;13.006;2023-06-22T07:21:40;12.40;;;10.45;;
28862;SDS011;15994;51.796;13.006;2023-06-22T07:24:07;11.50;;;10.15;;
28862;SDS011;15994;51.796;13.006;2023-06-22T07:26:34;12.18;;;10.95;;
28862;SDS011;15994;51.796;13.006;2023-06-22T07:29:00;11.38;;;10.23;;
28862;SDS011;15994;51.796;13.006;2023-06-22T07:31:27;11.65;;;10.20;;
28862;SDS011;15994;51.796;13.006;2023-06-22T07:33:53;11.10;;;10.00;;
28862;SDS011;15994;51.796;13.006;2023-06-22T07:36:20;11.70;;;10.60;;
28862;SDS011;15994;51.796;13.006;2023-06-22T07:38:46;12.27;;;10.23;;
28862;SDS011;15994;51.796;13.006;2023-06-22T07:41:13;11.32;;;10.15;;
28862;SDS011;15994;51.796;13.006;2023-06-22T07:43:41;10.98;;;9.95;;
28862;SDS011;15994;51.796;13.006;2023-06-22T07:46:07;11.57;;;10.07;;
28862;SDS011;15994;51.796;13.006;2023-06-22T07:48:36;10.75;;;9.55;;
28862;SDS011;15994;51.796;13.006;2023-06-22T07:51:04;10.88;;;9.57;;
28862;SDS011;15994;51.796;13.006;2023-06-22T07:53:31;10.18;;;9.10;;
28862;SDS011;15994;51.796;13.006;2023-06-22T07:55:58;10.90;;;9.80;;
28862;SDS011;15994;51.796;13.006;2023-06-22T07:58:24;10.35;;;9.10;;
28862;SDS011;15994;51.796;13.006;2023-06-22T08:00:51;10.20;;;9.00;;
28862;SDS011;15994;51.796;13.006;2023-06-22T08:03:17;10.82;;;8.93;;
28862;SDS011;15994;51.796;13.006;2023-06-22T08:05:44;8.93;;;8.02;;
28862;SDS011;15994;51.796;13.006;2023-06-22T08:08:10;9.32;;;8.13;;
28862;SDS011;15994;51.796;13.006;2023-06-22T08:10:37;11.38;;;8.55;;
28862;SDS011;15994;51.796;13.006;2023-06-22T08:13:04;8.55;;;7.72;;
28862;SDS011;15994;51.796;13.006;2023-06-22T08:15:30;8.00;;;7.30;;
28862;SDS011;15994;51.796;13.006;2023-06-22T08:17:57;7.82;;;7.03;;
28862;SDS011;15994;51.796;13.006;2023-06-22T08:20:25;8.00;;;7.20;;
28862;SDS011;15994;51.796;13.006;2023-06-22T08:22:52;8.32;;;7.40;;
28862;SDS011;15994;51.796;13.006;2023-06-22T08:25:20;11.82;;;6.65;;
28862;SDS011;15994;51.796;13.006;2023-06-22T08:27:47;7.60;;;6.78;;
28862;SDS011;15994;51.796;13.006;2023-06-22T08:30:14;8.25;;;7.00;;
28862;SDS011;15994;51.796;13.006;2023-06-22T08:32:41;9.40;;;6.75;;
28862;SDS011;15994;51.796;13.006;2023-06-22T08:35:08;8.20;;;6.45;;
28862;SDS011;15994;51.796;13.006;2023-06-22T08:37:35;8.40;;;7.60;;
28862;SDS011;15994;51.796;13.006;2023-06-22T08:40:04;9.73;;;7.35;;
28862;SDS011;15994;51.796;13.006;2023-06-22T08:42:32;7.75;;;6.75;;
28862;SDS011;15994;51.796;13.006;2023-06-22T08:44:59;8.50;;;7.65;;
28862;SDS011;15994;51.796;13.006;2023-06-22T08:47:29;7.97;;;7.18;;
28862;SDS011;15994;51.796;13.006;2023-06-22T08:49:55;7.50;;;6.38;;
28862;SDS011;15994;51.796;13.006;2023-06-22T08:52:22;7.13;;;6.43;;
28862;SDS011;15994;51.796;13.006;2023-06-22T08:54:49;7.57;;;6.57;;
28862;SDS011;15994;51.796;13.006;2023-06-22T08:57:16;8.45;;;7.10;;
28862;SDS011;15994;51.796;13.006;2023-06-22T08:59:42;9.02;;;6.47;;
28862;SDS011;15994;51.796;13.006;2023-06-22T09:02:09;8.30;;;7.50;;
28862;SDS011;15994;51.796;13.006;2023-06-22T09:04:35;9.13;;;7.40;;
28862;SDS011;15994;51.796;13.006;2023-06-22T09:07:02;7.43;;;6.68;;
28862;SDS011;15994;51.796;13.006;2023-06-22T09:09:29;7.72;;;6.32;;
28862;SDS011;15994;51.796;13.006;2023-06-22T09:11:55;8.18;;;7.00;;
28862;SDS011;15994;51.796;13.006;2023-06-22T09:14:22;7.45;;;6.78;;
28862;SDS011;15994;51.796;13.006;2023-06-22T09:16:48;10.35;;;7.35;;
28862;SDS011;15994;51.796;13.006;2023-06-22T09:19:16;7.80;;;7.00;;
28862;SDS011;15994;51.796;13.006;2023-06-22T09:21:42;10.27;;;7.25;;
28862;SDS011;15994;51.796;13.006;2023-06-22T09:24:09;7.57;;;6.85;;
28862;SDS011;15994;51.796;13.006;2023-06-22T09:26:35;8.20;;;7.40;;
28862;SDS011;15994;51.796;13.006;2023-06-22T09:29:04;8.48;;;7.43;;
28862;SDS011;15994;51.796;13.006;2023-06-22T09:31:31;8.02;;;7.22;;
28862;SDS011;15994;51.796;13.006;2023-06-22T09:33:58;8.40;;;7.50;;
28862;SDS011;15994;51.796;13.006;2023-06-22T09:36:24;7.95;;;7.25;;
28862;SDS011;15994;51.796;13.006;2023-06-22T09:38:51;8.38;;;7.47;;
28862;SDS011;15994;51.796;13.006;2023-06-22T09:41:20;9.07;;;7.18;;
28862;SDS011;15994;51.796;13.006;2023-06-22T09:43:47;8.98;;;7.55;;
28862;SDS011;15994;51.796;13.006;2023-06-22T09:46:17;8.30;;;7.47;;
28862;SDS011;15994;51.796;13.006;2023-06-22T09:48:46;8.27;;;7.45;;
28862;SDS011;15994;51.796;13.006;2023-06-22T09:51:12;8.63;;;7.70;;
28862;SDS011;15994;51.796;13.006;2023-06-22T09:53:39;8.05;;;7.25;;
28862;SDS011;15994;51.796;13.006;2023-06-22T09:56:05;7.68;;;6.97;;
28862;SDS011;15994;51.796;13.006;2023-06-22T09:58:32;7.88;;;7.07;;
28862;SDS011;15994;51.796;13.006;2023-06-22T10:00:58;9.38;;;6.80;;
28862;SDS011;15994;51.796;13.006;2023-06-22T10:03:25;8.00;;;6.70;;
28862;SDS011;15994;51.796;13.006;2023-06-22T10:05:52;10.10;;;7.00;;
28862;SDS011;15994;51.796;13.006;2023-06-22T10:08:18;7.50;;;6.28;;
28862;SDS011;15994;51.796;13.006;2023-06-22T10:10:45;7.38;;;6.68;;
28862;SDS011;15994;51.796;13.006;2023-06-22T10:13:11;7.47;;;6.03;;
28862;SDS011;15994;51.796;13.006;2023-06-22T10:15:38;8.15;;;6.60;;
28862;SDS011;15994;51.796;13.006;2023-06-22T10:18:05;6.97;;;6.32;;
28862;SDS011;15994;51.796;13.006;2023-06-22T10:20:31;7.55;;;6.68;;
28862;SDS011;15994;51.796;13.006;2023-06-22T10:22:58;7.53;;;6.82;;
28862;SDS011;15994;51.796;13.006;2023-06-22T10:25:24;7.28;;;6.57;;
28862;SDS011;15994;51.796;13.006;2023-06-22T10:27:52;7.75;;;6.43;;
28862;SDS011;15994;51.796;13.006;2023-06-22T10:30:18;7.82;;;6.57;;
28862;SDS011;15994;51.796;13.006;2023-06-22T10:32:45;8.55;;;6.88;;
28862;SDS011;15994;51.796;13.006;2023-06-22T10:35:11;7.43;;;6.47;;
28862;SDS011;15994;51.796;13.006;2023-06-22T10:37:40;6.25;;;5.65;;
28862;SDS011;15994;51.796;13.006;2023-06-22T10:40:10;9.00;;;6.30;;
28862;SDS011;15994;51.796;13.006;2023-06-22T10:42:38;6.88;;;6.13;;
28862;SDS011;15994;51.796;13.006;2023-06-22T10:45:05;9.55;;;6.10;;
28862;SDS011;15994;51.796;13.006;2023-06-22T10:47:32;6.93;;;6.22;;
28862;SDS011;15994;51.796;13.006;2023-06-22T10:49:58;6.75;;;5.75;;
28862;SDS011;15994;51.796;13.006;2023-06-22T10:52:25;8.27;;;6.10;;
28862;SDS011;15994;51.796;13.006;2023-06-22T10:54:51;6.70;;;5.72;;
28862;SDS011;15994;51.796;13.006;2023-06-22T10:57:18;6.45;;;5.85;;
28862;SDS011;15994;51.796;13.006;2023-06-22T10:59:45;6.78;;;5.70;;
28862;SDS011;15994;51.796;13.006;2023-06-22T11:02:11;7.97;;;6.45;;
28862;SDS011;15994;51.796;13.006;2023-06-22T11:04:38;6.78;;;5.97;;
28862;SDS011;15994;51.796;13.006;2023-06-22T11:07:05;7.18;;;6.10;;
28862;SDS011;15994;51.796;13.006;2023-06-22T11:09:31;8.13;;;6.85;;
28862;SDS011;15994;51.796;13.006;2023-06-22T11:11:58;8.52;;;7.13;;
28862;SDS011;15994;51.796;13.006;2023-06-22T11:14:25;7.60;;;6.90;;
28862;SDS011;15994;51.796;13.006;2023-06-22T11:16:51;8.00;;;7.20;;
28862;SDS011;15994;51.796;13.006;2023-06-22T11:19:18;12.27;;;8.15;;
28862;SDS011;15994;51.796;13.006;2023-06-22T11:21:45;11.27;;;7.35;;
28862;SDS011;15994;51.796;13.006;2023-06-22T11:24:11;7.72;;;6.95;;
28862;SDS011;15994;51.796;13.006;2023-06-22T11:26:38;8.05;;;7.18;;
28862;SDS011;15994;51.796;13.006;2023-06-22T11:29:04;10.93;;;7.95;;
28862;SDS011;15994;51.796;13.006;2023-06-22T11:31:32;8.65;;;7.47;;
28862;SDS011;15994;51.796;13.006;2023-06-22T11:33:58;8.05;;;7.35;;
28862;SDS011;15994;51.796;13.006;2023-06-22T11:36:25;8.27;;;7.22;;
28862;SDS011;15994;51.796;13.006;2023-06-22T11:38:52;7.55;;;6.78;;
28862;SDS011;15994;51.796;13.006;2023-06-22T11:41:18;7.55;;;6.82;;
28862;SDS011;15994;51.796;13.006;2023-06-22T11:43:45;6.95;;;6.25;;
28862;SDS011;15994;51.796;13.006;2023-06-22T11:46:12;7.90;;;6.60;;
28862;SDS011;15994;51.796;13.006;2023-06-22T11:48:38;6.82;;;6.03;;
28862;SDS011;15994;51.796;13.006;2023-06-22T11:51:05;8.05;;;6.82;;
28862;SDS011;15994;51.796;13.006;2023-06-22T11:53:33;8.35;;;7.10;;
28862;SDS011;15994;51.796;13.006;2023-06-22T11:56:00;8.45;;;6.80;;
28862;SDS011;15994;51.796;13.006;2023-06-22T11:58:27;11.88;;;7.82;;
28862;SDS011;15994;51.796;13.006;2023-06-22T12:00:54;8.55;;;7.10;;
28862;SDS011;15994;51.796;13.006;2023-06-22T12:03:20;9.18;;;6.88;;
28862;SDS011;15994;51.796;13.006;2023-06-22T12:05:47;10.40;;;6.60;;
28862;SDS011;15994;51.796;13.006;2023-06-22T12:08:14;8.38;;;6.53;;
28862;SDS011;15994;51.796;13.006;2023-06-22T12:10:40;10.50;;;6.45;;
28862;SDS011;15994;51.796;13.006;2023-06-22T12:13:07;8.27;;;6.57;;
28862;SDS011;15994;51.796;13.006;2023-06-22T12:15:33;9.60;;;7.00;;
28862;SDS011;15994;51.796;13.006;2023-06-22T12:18:00;6.65;;;5.80;;
28862;SDS011;15994;51.796;13.006;2023-06-22T12:20:27;7.20;;;5.72;;
28862;SDS011;15994;51.796;13.006;2023-06-22T12:22:54;8.45;;;6.15;;
28862;SDS011;15994;51.796;13.006;2023-06-22T12:25:23;6.95;;;6.18;;
28862;SDS011;15994;51.796;13.006;2023-06-22T12:27:49;9.32;;;6.50;;
28862;SDS011;15994;51.796;13.006;2023-06-22T12:30:16;7.55;;;6.07;;
28862;SDS011;15994;51.796;13.006;2023-06-22T12:32:42;8.85;;;6.10;;
28862;SDS011;15994;51.796;13.006;2023-06-22T12:35:09;6.40;;;5.80;;
28862;SDS011;15994;51.796;13.006;2023-06-22T12:37:39;8.63;;;6.20;;
28862;SDS011;15994;51.796;13.006;2023-06-22T12:40:07;8.02;;;5.55;;
28862;SDS011;15994;51.796;13.006;2023-06-22T12:42:34;9.32;;;6.05;;
28862;SDS011;15994;51.796;13.006;2023-06-22T12:45:00;6.63;;;6.00;;
28862;SDS011;15994;51.796;13.006;2023-06-22T12:47:27;6.95;;;5.57;;
28862;SDS011;15994;51.796;13.006;2023-06-22T12:49:53;10.40;;;6.45;;
28862;SDS011;15994;51.796;13.006;2023-06-22T12:52:20;6.78;;;6.00;;
28862;SDS011;15994;51.796;13.006;2023-06-22T12:54:46;7.65;;;5.65;;
28862;SDS011;15994;51.796;13.006;2023-06-22T12:57:13;8.85;;;6.00;;
28862;SDS011;15994;51.796;13.006;2023-06-22T12:59:40;10.60;;;6.38;;
28862;SDS011;15994;51.796;13.006;2023-06-22T13:02:06;7.32;;;6.00;;
28862;SDS011;15994;51.796;13.006;2023-06-22T13:04:33;6.65;;;5.65;;
28862;SDS011;15994;51.796;13.006;2023-06-22T13:06:59;8.43;;;5.50;;
28862;SDS011;15994;51.796;13.006;2023-06-22T13:09:26;5.78;;;5.15;;
28862;SDS011;15994;51.796;13.006;2023-06-22T13:11:53;7.40;;;5.35;;
28862;SDS011;15994;51.796;13.006;2023-06-22T13:14:19;6.75;;;5.10;;
28862;SDS011;15994;51.796;13.006;2023-06-22T13:16:46;8.05;;;5.47;;
28862;SDS011;15994;51.796;13.006;2023-06-22T13:19:12;8.20;;;5.60;;
28862;SDS011;15994;51.796;13.006;2023-06-22T13:21:39;7.10;;;5.40;;
28862;SDS011;15994;51.796;13.006;2023-06-22T13:24:06;6.78;;;5.00;;
28862;SDS011;15994;51.796;13.006;2023-06-22T13:26:33;8.15;;;5.70;;
28862;SDS011;15994;51.796;13.006;2023-06-22T13:28:59;6.38;;;5.30;;
28862;SDS011;15994;51.796;13.006;2023-06-22T13:31:26;7.47;;;5.40;;
28862;SDS011;15994;51.796;13.006;2023-06-22T13:33:52;6.93;;;5.50;;
28862;SDS011;15994;51.796;13.006;2023-06-22T13:36:19;6.13;;;5.38;;
28862;SDS011;15994;51.796;13.006;2023-06-22T13:38:46;6.63;;;5.63;;
28862;SDS011;15994;51.796;13.006;2023-06-22T13:41:12;8.13;;;5.45;;
28862;SDS011;15994;51.796;13.006;2023-06-22T13:43:39;6.65;;;5.40;;
28862;SDS011;15994;51.796;13.006;2023-06-22T13:46:06;6.30;;;5.70;;
28862;SDS011;15994;51.796;13.006;2023-06-22T13:48:32;6.78;;;5.57;;
28862;SDS011;15994;51.796;13.006;2023-06-22T13:50:59;6.13;;;5.20;;
28862;SDS011;15994;51.796;13.006;2023-06-22T13:53:25;7.38;;;5.90;;
28862;SDS011;15994;51.796;13.006;2023-06-22T13:55:51;7.05;;;5.18;;
28862;SDS011;15994;51.796;13.006;2023-06-22T13:58:18;7.00;;;5.63;;
28862;SDS011;15994;51.796;13.006;2023-06-22T14:00:45;7.18;;;5.20;;
28862;SDS011;15994;51.796;13.006;2023-06-22T14:03:12;6.38;;;5.43;;
28862;SDS011;15994;51.796;13.006;2023-06-22T14:05:41;8.80;;;5.22;;
28862;SDS011;15994;51.796;13.006;2023-06-22T14:08:07;6.38;;;5.35;;
28862;SDS011;15994;51.796;13.006;2023-06-22T14:10:34;8.20;;;5.50;;
28862;SDS011;15994;51.796;13.006;2023-06-22T14:13:01;8.02;;;5.70;;
28862;SDS011;15994;51.796;13.006;2023-06-22T14:15:30;5.82;;;5.10;;
28862;SDS011;15994;51.796;13.006;2023-06-22T14:17:57;7.15;;;5.10;;
28862;SDS011;15994;51.796;13.006;2023-06-22T14:20:23;5.15;;;4.70;;
28862;SDS011;15994;51.796;13.006;2023-06-22T14:22:50;5.80;;;5.20;;
28862;SDS011;15994;51.796;13.006;2023-06-22T14:25:17;6.93;;;5.25;;
28862;SDS011;15994;51.796;13.006;2023-06-22T14:27:43;6.85;;;5.60;;
28862;SDS011;15994;51.796;13.006;2023-06-22T14:30:10;8.43;;;5.30;;
28862;SDS011;15994;51.796;13.006;2023-06-22T14:32:37;6.43;;;4.80;;